sensor_id;sensor_type;location;lat;lon;timestamp;P1;durP1;ratioP1;P2;durP2;ratioP2
49578;SDS011;35483;50.828;3.228;2022-08-21T00:02:21;4.13;;;1.95;;
49578;SDS011;35483;50.828;3.228;2022-08-21T00:04:49;4.68;;;2.55;;
49578;SDS011;35483;50.828;3.228;2022-08-21T00:07:15;5.53;;;2.40;;
49578;SDS011;35483;50.828;3.228;2022-08-21T00:09:42;5.32;;;1.90;;
49578;SDS011;35483;50.828;3.228;2022-08-21T00:12:08;6.38;;;1.98;;
49578;SDS011;35483;50.828;3.228;2022-08-21T00:14:35;5.30;;;2.47;;
49578;SDS011;35483;50.828;3.228;2022-08-21T00:17:02;5.80;;;2.45;;
49578;SDS011;35483;50.828;3.228;2022-08-21T00:19:29;5.55;;;2.30;;
49578;SDS011;35483;50.828;3.228;2022-08-21T00:21:56;6.75;;;2.53;;
49578;SDS011;35483;50.828;3.228;2022-08-21T00:24:23;5.18;;;2.33;;
49578;SDS011;35483;50.828;3.228;2022-08-21T00:26:49;4.38;;;2.17;;
49578;SDS011;35483;50.828;3.228;2022-08-21T00:29:15;4.97;;;1.98;;
49578;SDS011;35483;50.828;3.228;2022-08-21T00:31:42;4.53;;;2.00;;
49578;SDS011;35483;50.828;3.228;2022-08-21T00:34:08;6.50;;;2.55;;
49578;SDS011;35483;50.828;3.228;2022-08-21T00:36:34;8.07;;;2.72;;
49578;SDS011;35483;50.828;3.228;2022-08-21T00:39:01;5.10;;;2.15;;
49578;SDS011;35483;50.828;3.228;2022-08-21T00:41:29;4.03;;;2.08;;
49578;SDS011;35483;50.828;3.228;2022-08-21T00:43:54;4.43;;;2.08;;
49578;SDS011;35483;50.828;3.228;2022-08-21T00:46:20;5.45;;;2.20;;
49578;SDS011;35483;50.828;3.228;2022-08-21T00:48:47;5.03;;;2.22;;
49578;SDS011;35483;50.828;3.228;2022-08-21T00:51:20;6.90;;;2.60;;
49578;SDS011;35483;50.828;3.228;2022-08-21T00:53:55;3.92;;;2.20;;
49578;SDS011;35483;50.828;3.228;2022-08-21T00:56:24;4.20;;;2.65;;
49578;SDS011;35483;50.828;3.228;2022-08-21T00:58:50;5.25;;;2.55;;
49578;SDS011;35483;50.828;3.228;2022-08-21T01:01:17;3.72;;;2.38;;
49578;SDS011;35483;50.828;3.228;2022-08-21T01:03:43;4.75;;;2.58;;
49578;SDS011;35483;50.828;3.228;2022-08-21T01:06:10;4.45;;;2.33;;
49578;SDS011;35483;50.828;3.228;2022-08-21T01:08:36;5.88;;;2.60;;
49578;SDS011;35483;50.828;3.228;2022-08-21T01:11:03;8.25;;;2.90;;
49578;SDS011;35483;50.828;3.228;2022-08-21T01:13:30;7.88;;;2.63;;
49578;SDS011;35483;50.828;3.228;2022-08-21T01:16:00;6.72;;;2.97;;
49578;SDS011;35483;50.828;3.228;2022-08-21T01:18:30;4.63;;;2.35;;
49578;SDS011;35483;50.828;3.228;2022-08-21T01:23:35;3.90;;;2.45;;
49578;SDS011;35483;50.828;3.228;2022-08-21T01:26:03;6.18;;;2.58;;
49578;SDS011;35483;50.828;3.228;2022-08-21T01:28:31;4.93;;;2.42;;
49578;SDS011;35483;50.828;3.228;2022-08-21T01:31:01;4.65;;;3.20;;
49578;SDS011;35483;50.828;3.228;2022-08-21T01:33:29;6.18;;;2.85;;
49578;SDS011;35483;50.828;3.228;2022-08-21T01:35:55;6.13;;;2.38;;
49578;SDS011;35483;50.828;3.228;2022-08-21T01:38:21;3.55;;;2.50;;
49578;SDS011;35483;50.828;3.228;2022-08-21T01:40:48;4.53;;;2.42;;
49578;SDS011;35483;50.828;3.228;2022-08-21T01:43:14;5.43;;;2.75;;
49578;SDS011;35483;50.828;3.228;2022-08-21T01:45:40;3.38;;;2.50;;
49578;SDS011;35483;50.828;3.228;2022-08-21T01:48:05;5.50;;;2.63;;
49578;SDS011;35483;50.828;3.228;2022-08-21T01:50:31;6.80;;;2.58;;
49578;SDS011;35483;50.828;3.228;2022-08-21T01:52:57;3.90;;;2.58;;
49578;SDS011;35483;50.828;3.228;2022-08-21T01:55:23;7.15;;;2.50;;
49578;SDS011;35483;50.828;3.228;2022-08-21T01:57:49;5.38;;;2.58;;
49578;SDS011;35483;50.828;3.228;2022-08-21T02:00:16;4.18;;;2.22;;
49578;SDS011;35483;50.828;3.228;2022-08-21T02:02:44;4.25;;;2.83;;
49578;SDS011;35483;50.828;3.228;2022-08-21T02:05:11;6.90;;;2.70;;
49578;SDS011;35483;50.828;3.228;2022-08-21T02:07:38;5.18;;;2.40;;
49578;SDS011;35483;50.828;3.228;2022-08-21T02:10:07;3.63;;;2.72;;
49578;SDS011;35483;50.828;3.228;2022-08-21T02:12:34;5.28;;;2.53;;
49578;SDS011;35483;50.828;3.228;2022-08-21T02:15:00;4.20;;;2.72;;
49578;SDS011;35483;50.828;3.228;2022-08-21T02:17:36;8.80;;;3.28;;
49578;SDS011;35483;50.828;3.228;2022-08-21T02:20:06;7.15;;;2.88;;
49578;SDS011;35483;50.828;3.228;2022-08-21T02:22:32;7.10;;;2.70;;
49578;SDS011;35483;50.828;3.228;2022-08-21T02:24:58;5.70;;;2.88;;
49578;SDS011;35483;50.828;3.228;2022-08-21T02:27:24;5.10;;;3.00;;
49578;SDS011;35483;50.828;3.228;2022-08-21T02:29:50;5.35;;;3.00;;
49578;SDS011;35483;50.828;3.228;2022-08-21T02:32:16;5.38;;;3.33;;
49578;SDS011;35483;50.828;3.228;2022-08-21T02:34:42;5.03;;;2.80;;
49578;SDS011;35483;50.828;3.228;2022-08-21T02:37:08;5.22;;;2.92;;
49578;SDS011;35483;50.828;3.228;2022-08-21T02:39:33;7.90;;;2.92;;
49578;SDS011;35483;50.828;3.228;2022-08-21T02:41:59;5.38;;;2.92;;
49578;SDS011;35483;50.828;3.228;2022-08-21T02:44:25;7.07;;;3.20;;
49578;SDS011;35483;50.828;3.228;2022-08-21T02:46:51;5.75;;;3.17;;
49578;SDS011;35483;50.828;3.228;2022-08-21T02:49:16;8.13;;;3.40;;
49578;SDS011;35483;50.828;3.228;2022-08-21T02:51:42;4.40;;;3.08;;
49578;SDS011;35483;50.828;3.228;2022-08-21T02:54:08;6.18;;;3.00;;
49578;SDS011;35483;50.828;3.228;2022-08-21T02:56:34;8.10;;;3.47;;
49578;SDS011;35483;50.828;3.228;2022-08-21T02:59:00;4.93;;;3.10;;
49578;SDS011;35483;50.828;3.228;2022-08-21T03:01:26;8.20;;;3.15;;
49578;SDS011;35483;50.828;3.228;2022-08-21T03:03:51;5.68;;;3.03;;
49578;SDS011;35483;50.828;3.228;2022-08-21T03:06:19;7.15;;;3.20;;
49578;SDS011;35483;50.828;3.228;2022-08-21T03:08:46;6.30;;;3.00;;
49578;SDS011;35483;50.828;3.228;2022-08-21T03:11:13;9.30;;;3.85;;
49578;SDS011;35483;50.828;3.228;2022-08-21T03:13:40;6.55;;;3.38;;
49578;SDS011;35483;50.828;3.228;2022-08-21T03:16:06;6.60;;;3.28;;
49578;SDS011;35483;50.828;3.228;2022-08-21T03:18:32;7.88;;;2.97;;
49578;SDS011;35483;50.828;3.228;2022-08-21T03:20:58;8.05;;;2.97;;
49578;SDS011;35483;50.828;3.228;2022-08-21T03:23:24;7.55;;;3.63;;
49578;SDS011;35483;50.828;3.228;2022-08-21T03:25:49;8.80;;;3.03;;
49578;SDS011;35483;50.828;3.228;2022-08-21T03:28:17;7.38;;;3.15;;
49578;SDS011;35483;50.828;3.228;2022-08-21T03:30:46;5.90;;;3.20;;
49578;SDS011;35483;50.828;3.228;2022-08-21T03:33:14;4.78;;;2.50;;
49578;SDS011;35483;50.828;3.228;2022-08-21T03:35:41;7.40;;;3.42;;
49578;SDS011;35483;50.828;3.228;2022-08-21T03:38:09;7.47;;;3.20;;
49578;SDS011;35483;50.828;3.228;2022-08-21T03:40:35;5.22;;;3.40;;
49578;SDS011;35483;50.828;3.228;2022-08-21T03:43:01;4.10;;;3.63;;
49578;SDS011;35483;50.828;3.228;2022-08-21T03:45:27;6.40;;;2.95;;
49578;SDS011;35483;50.828;3.228;2022-08-21T03:47:56;4.75;;;2.60;;
49578;SDS011;35483;50.828;3.228;2022-08-21T03:50:25;7.03;;;3.65;;
49578;SDS011;35483;50.828;3.228;2022-08-21T03:52:53;6.85;;;3.70;;
49578;SDS011;35483;50.828;3.228;2022-08-21T03:55:20;6.75;;;3.15;;
49578;SDS011;35483;50.828;3.228;2022-08-21T03:57:45;5.63;;;3.10;;
49578;SDS011;35483;50.828;3.228;2022-08-21T04:00:12;8.18;;;2.97;;
49578;SDS011;35483;50.828;3.228;2022-08-21T04:02:40;6.18;;;3.13;;
49578;SDS011;35483;50.828;3.228;2022-08-21T04:05:08;5.75;;;2.95;;
49578;SDS011;35483;50.828;3.228;2022-08-21T04:07:34;5.90;;;2.85;;
49578;SDS011;35483;50.828;3.228;2022-08-21T04:10:01;7.78;;;3.10;;
49578;SDS011;35483;50.828;3.228;2022-08-21T04:12:28;5.03;;;3.33;;
49578;SDS011;35483;50.828;3.228;2022-08-21T04:14:55;8.88;;;3.15;;
49578;SDS011;35483;50.828;3.228;2022-08-21T04:17:21;5.28;;;2.90;;
49578;SDS011;35483;50.828;3.228;2022-08-21T04:19:47;4.53;;;2.50;;
49578;SDS011;35483;50.828;3.228;2022-08-21T04:22:14;4.18;;;2.95;;
49578;SDS011;35483;50.828;3.228;2022-08-21T04:24:40;7.35;;;3.10;;
49578;SDS011;35483;50.828;3.228;2022-08-21T04:27:06;6.43;;;3.15;;
49578;SDS011;35483;50.828;3.228;2022-08-21T04:29:32;6.25;;;2.83;;
49578;SDS011;35483;50.828;3.228;2022-08-21T04:31:57;5.13;;;2.65;;
49578;SDS011;35483;50.828;3.228;2022-08-21T04:34:24;7.22;;;2.78;;
49578;SDS011;35483;50.828;3.228;2022-08-21T04:36:50;5.05;;;3.00;;
49578;SDS011;35483;50.828;3.228;2022-08-21T04:39:15;5.32;;;3.15;;
49578;SDS011;35483;50.828;3.228;2022-08-21T04:41:41;4.88;;;2.92;;
49578;SDS011;35483;50.828;3.228;2022-08-21T04:44:07;8.27;;;3.47;;
49578;SDS011;35483;50.828;3.228;2022-08-21T04:46:33;4.50;;;3.17;;
49578;SDS011;35483;50.828;3.228;2022-08-21T04:49:00;6.38;;;3.00;;
49578;SDS011;35483;50.828;3.228;2022-08-21T04:51:27;8.52;;;3.33;;
49578;SDS011;35483;50.828;3.228;2022-08-21T04:53:58;5.28;;;3.33;;
49578;SDS011;35483;50.828;3.228;2022-08-21T04:56:31;6.35;;;3.20;;
49578;SDS011;35483;50.828;3.228;2022-08-21T04:59:02;5.47;;;3.40;;
49578;SDS011;35483;50.828;3.228;2022-08-21T05:01:32;6.25;;;3.20;;
49578;SDS011;35483;50.828;3.228;2022-08-21T05:04:01;5.07;;;2.83;;
49578;SDS011;35483;50.828;3.228;2022-08-21T05:06:30;6.40;;;3.17;;
49578;SDS011;35483;50.828;3.228;2022-08-21T05:08:59;4.90;;;3.35;;
49578;SDS011;35483;50.828;3.228;2022-08-21T05:11:26;4.95;;;3.03;;
49578;SDS011;35483;50.828;3.228;2022-08-21T05:13:53;8.10;;;3.10;;
49578;SDS011;35483;50.828;3.228;2022-08-21T05:16:18;6.63;;;2.65;;
49578;SDS011;35483;50.828;3.228;2022-08-21T05:18:44;5.53;;;3.00;;
49578;SDS011;35483;50.828;3.228;2022-08-21T05:21:10;7.22;;;3.38;;
49578;SDS011;35483;50.828;3.228;2022-08-21T05:23:35;4.45;;;2.78;;
49578;SDS011;35483;50.828;3.228;2022-08-21T05:26:02;7.50;;;3.00;;
49578;SDS011;35483;50.828;3.228;2022-08-21T05:28:29;6.47;;;2.95;;
49578;SDS011;35483;50.828;3.228;2022-08-21T05:30:56;7.13;;;3.15;;
49578;SDS011;35483;50.828;3.228;2022-08-21T05:33:22;7.05;;;3.47;;
49578;SDS011;35483;50.828;3.228;2022-08-21T05:35:51;5.72;;;2.85;;
49578;SDS011;35483;50.828;3.228;2022-08-21T05:38:20;7.32;;;3.10;;
49578;SDS011;35483;50.828;3.228;2022-08-21T05:40:47;9.30;;;3.85;;
49578;SDS011;35483;50.828;3.228;2022-08-21T05:43:13;7.10;;;2.95;;
49578;SDS011;35483;50.828;3.228;2022-08-21T05:45:39;5.70;;;3.13;;
49578;SDS011;35483;50.828;3.228;2022-08-21T05:48:26;5.97;;;2.78;;
49578;SDS011;35483;50.828;3.228;2022-08-21T05:50:51;8.10;;;3.33;;
49578;SDS011;35483;50.828;3.228;2022-08-21T05:53:18;7.07;;;2.80;;
49578;SDS011;35483;50.828;3.228;2022-08-21T05:55:45;7.20;;;2.70;;
49578;SDS011;35483;50.828;3.228;2022-08-21T05:58:12;7.85;;;2.70;;
49578;SDS011;35483;50.828;3.228;2022-08-21T06:00:39;5.72;;;2.90;;
49578;SDS011;35483;50.828;3.228;2022-08-21T06:03:09;7.05;;;3.25;;
49578;SDS011;35483;50.828;3.228;2022-08-21T06:05:37;6.82;;;2.75;;
49578;SDS011;35483;50.828;3.228;2022-08-21T06:08:03;7.72;;;2.92;;
49578;SDS011;35483;50.828;3.228;2022-08-21T06:10:29;6.60;;;2.70;;
49578;SDS011;35483;50.828;3.228;2022-08-21T06:12:54;4.35;;;2.72;;
49578;SDS011;35483;50.828;3.228;2022-08-21T06:15:20;5.30;;;2.80;;
49578;SDS011;35483;50.828;3.228;2022-08-21T06:17:46;5.05;;;2.83;;
49578;SDS011;35483;50.828;3.228;2022-08-21T06:20:12;6.32;;;2.90;;
49578;SDS011;35483;50.828;3.228;2022-08-21T06:22:37;6.38;;;2.70;;
49578;SDS011;35483;50.828;3.228;2022-08-21T06:25:03;6.63;;;2.78;;
49578;SDS011;35483;50.828;3.228;2022-08-21T06:27:29;9.38;;;3.17;;
49578;SDS011;35483;50.828;3.228;2022-08-21T06:29:55;5.05;;;2.65;;
49578;SDS011;35483;50.828;3.228;2022-08-21T06:32:22;5.15;;;2.78;;
49578;SDS011;35483;50.828;3.228;2022-08-21T06:34:48;5.43;;;3.08;;
49578;SDS011;35483;50.828;3.228;2022-08-21T06:37:13;5.30;;;2.38;;
49578;SDS011;35483;50.828;3.228;2022-08-21T06:39:39;5.40;;;2.45;;
49578;SDS011;35483;50.828;3.228;2022-08-21T06:42:05;5.55;;;2.65;;
49578;SDS011;35483;50.828;3.228;2022-08-21T06:44:31;6.22;;;2.58;;
49578;SDS011;35483;50.828;3.228;2022-08-21T06:46:56;6.13;;;2.40;;
49578;SDS011;35483;50.828;3.228;2022-08-21T06:49:22;5.05;;;2.47;;
49578;SDS011;35483;50.828;3.228;2022-08-21T06:51:48;5.22;;;2.55;;
49578;SDS011;35483;50.828;3.228;2022-08-21T06:54:14;7.07;;;2.55;;
49578;SDS011;35483;50.828;3.228;2022-08-21T06:56:39;7.30;;;2.55;;
49578;SDS011;35483;50.828;3.228;2022-08-21T06:59:05;7.85;;;3.25;;
49578;SDS011;35483;50.828;3.228;2022-08-21T07:01:31;8.07;;;2.83;;
49578;SDS011;35483;50.828;3.228;2022-08-21T07:03:57;4.72;;;2.50;;
49578;SDS011;35483;50.828;3.228;2022-08-21T07:06:23;5.45;;;2.78;;
49578;SDS011;35483;50.828;3.228;2022-08-21T07:08:50;10.55;;;2.88;;
49578;SDS011;35483;50.828;3.228;2022-08-21T07:11:20;7.53;;;2.80;;
49578;SDS011;35483;50.828;3.228;2022-08-21T07:13:48;7.47;;;2.97;;
49578;SDS011;35483;50.828;3.228;2022-08-21T07:16:16;6.03;;;2.80;;
49578;SDS011;35483;50.828;3.228;2022-08-21T07:18:41;7.05;;;2.15;;
49578;SDS011;35483;50.828;3.228;2022-08-21T07:21:07;6.00;;;2.50;;
49578;SDS011;35483;50.828;3.228;2022-08-21T07:23:38;6.85;;;2.58;;
49578;SDS011;35483;50.828;3.228;2022-08-21T07:26:07;4.03;;;2.35;;
49578;SDS011;35483;50.828;3.228;2022-08-21T07:28:33;7.72;;;2.63;;
49578;SDS011;35483;50.828;3.228;2022-08-21T07:30:59;6.38;;;2.60;;
49578;SDS011;35483;50.828;3.228;2022-08-21T07:33:27;4.95;;;2.53;;
49578;SDS011;35483;50.828;3.228;2022-08-21T07:35:54;4.15;;;2.10;;
49578;SDS011;35483;50.828;3.228;2022-08-21T07:38:20;5.93;;;2.78;;
49578;SDS011;35483;50.828;3.228;2022-08-21T07:40:47;5.45;;;2.50;;
49578;SDS011;35483;50.828;3.228;2022-08-21T07:43:16;5.97;;;2.70;;
49578;SDS011;35483;50.828;3.228;2022-08-21T07:45:43;5.85;;;2.50;;
49578;SDS011;35483;50.828;3.228;2022-08-21T07:48:09;6.40;;;2.85;;
49578;SDS011;35483;50.828;3.228;2022-08-21T07:50:36;6.85;;;3.22;;
49578;SDS011;35483;50.828;3.228;2022-08-21T07:53:02;4.07;;;2.92;;
49578;SDS011;35483;50.828;3.228;2022-08-21T07:55:28;7.40;;;3.08;;
49578;SDS011;35483;50.828;3.228;2022-08-21T07:57:53;8.93;;;2.78;;
49578;SDS011;35483;50.828;3.228;2022-08-21T08:00:20;6.20;;;2.67;;
49578;SDS011;35483;50.828;3.228;2022-08-21T08:02:50;6.68;;;2.80;;
49578;SDS011;35483;50.828;3.228;2022-08-21T08:05:18;5.80;;;2.50;;
49578;SDS011;35483;50.828;3.228;2022-08-21T08:07:45;8.38;;;2.83;;
49578;SDS011;35483;50.828;3.228;2022-08-21T08:10:11;5.75;;;2.45;;
49578;SDS011;35483;50.828;3.228;2022-08-21T08:12:37;8.18;;;3.00;;
49578;SDS011;35483;50.828;3.228;2022-08-21T08:15:08;7.60;;;2.70;;
49578;SDS011;35483;50.828;3.228;2022-08-21T08:17:36;6.68;;;2.60;;
49578;SDS011;35483;50.828;3.228;2022-08-21T08:20:04;4.35;;;2.35;;
49578;SDS011;35483;50.828;3.228;2022-08-21T08:22:31;8.40;;;3.03;;
49578;SDS011;35483;50.828;3.228;2022-08-21T08:24:58;6.90;;;2.58;;
49578;SDS011;35483;50.828;3.228;2022-08-21T08:27:25;5.15;;;2.50;;
49578;SDS011;35483;50.828;3.228;2022-08-21T08:29:51;8.70;;;2.47;;
49578;SDS011;35483;50.828;3.228;2022-08-21T08:32:17;5.70;;;2.15;;
49578;SDS011;35483;50.828;3.228;2022-08-21T08:34:43;6.68;;;2.63;;
49578;SDS011;35483;50.828;3.228;2022-08-21T08:37:09;5.53;;;2.20;;
49578;SDS011;35483;50.828;3.228;2022-08-21T08:39:37;4.95;;;2.30;;
49578;SDS011;35483;50.828;3.228;2022-08-21T08:44:31;5.90;;;2.38;;
49578;SDS011;35483;50.828;3.228;2022-08-21T08:46:56;6.55;;;2.65;;
49578;SDS011;35483;50.828;3.228;2022-08-21T08:52:04;4.53;;;1.88;;
49578;SDS011;35483;50.828;3.228;2022-08-21T08:54:41;8.18;;;2.22;;
49578;SDS011;35483;50.828;3.228;2022-08-21T08:57:14;6.20;;;2.33;;
49578;SDS011;35483;50.828;3.228;2022-08-21T08:59:43;7.07;;;2.30;;
49578;SDS011;35483;50.828;3.228;2022-08-21T09:02:13;6.20;;;1.80;;
49578;SDS011;35483;50.828;3.228;2022-08-21T09:04:41;5.45;;;2.10;;
49578;SDS011;35483;50.828;3.228;2022-08-21T09:12:49;5.88;;;2.25;;
49578;SDS011;35483;50.828;3.228;2022-08-21T09:15:32;5.47;;;2.22;;
49578;SDS011;35483;50.828;3.228;2022-08-21T09:18:17;6.22;;;2.03;;
49578;SDS011;35483;50.828;3.228;2022-08-21T09:24:01;7.97;;;2.10;;
49578;SDS011;35483;50.828;3.228;2022-08-21T09:26:34;5.07;;;2.10;;
49578;SDS011;35483;50.828;3.228;2022-08-21T09:29:12;4.43;;;1.98;;
49578;SDS011;35483;50.828;3.228;2022-08-21T09:31:41;5.63;;;2.08;;
49578;SDS011;35483;50.828;3.228;2022-08-21T09:34:08;6.30;;;2.65;;
49578;SDS011;35483;50.828;3.228;2022-08-21T09:39:08;7.40;;;2.75;;
49578;SDS011;35483;50.828;3.228;2022-08-21T09:41:35;6.07;;;2.30;;
49578;SDS011;35483;50.828;3.228;2022-08-21T09:44:03;7.38;;;3.00;;
49578;SDS011;35483;50.828;3.228;2022-08-21T09:46:32;7.90;;;2.55;;
49578;SDS011;35483;50.828;3.228;2022-08-21T09:49:01;6.90;;;2.95;;
49578;SDS011;35483;50.828;3.228;2022-08-21T09:51:31;5.47;;;2.08;;
49578;SDS011;35483;50.828;3.228;2022-08-21T09:59:37;8.73;;;2.50;;
49578;SDS011;35483;50.828;3.228;2022-08-21T10:02:19;8.70;;;2.58;;
49578;SDS011;35483;50.828;3.228;2022-08-21T10:04:50;7.65;;;2.42;;
49578;SDS011;35483;50.828;3.228;2022-08-21T10:07:20;4.85;;;2.47;;
49578;SDS011;35483;50.828;3.228;2022-08-21T10:09:57;10.02;;;2.97;;
49578;SDS011;35483;50.828;3.228;2022-08-21T10:12:42;6.63;;;3.03;;
49578;SDS011;35483;50.828;3.228;2022-08-21T10:18:35;5.38;;;2.05;;
49578;SDS011;35483;50.828;3.228;2022-08-21T10:32:34;7.55;;;3.53;;
49578;SDS011;35483;50.828;3.228;2022-08-21T10:40:29;5.75;;;2.67;;
49578;SDS011;35483;50.828;3.228;2022-08-21T10:43:21;11.75;;;2.85;;
49578;SDS011;35483;50.828;3.228;2022-08-21T10:46:30;6.93;;;2.70;;
49578;SDS011;35483;50.828;3.228;2022-08-21T10:49:09;5.15;;;2.58;;
49578;SDS011;35483;50.828;3.228;2022-08-21T10:54:40;5.18;;;2.22;;
49578;SDS011;35483;50.828;3.228;2022-08-21T10:57:29;6.45;;;2.65;;
49578;SDS011;35483;50.828;3.228;2022-08-21T11:02:45;5.43;;;2.70;;
49578;SDS011;35483;50.828;3.228;2022-08-21T11:05:31;7.70;;;2.80;;
49578;SDS011;35483;50.828;3.228;2022-08-21T11:08:06;5.40;;;2.40;;
49578;SDS011;35483;50.828;3.228;2022-08-21T11:13:38;6.75;;;2.80;;
49578;SDS011;35483;50.828;3.228;2022-08-21T11:16:18;6.75;;;2.30;;
49578;SDS011;35483;50.828;3.228;2022-08-21T11:21:53;4.05;;;2.17;;
49578;SDS011;35483;50.828;3.228;2022-08-21T11:29:48;6.72;;;2.40;;
49578;SDS011;35483;50.828;3.228;2022-08-21T11:40:35;5.68;;;2.33;;
49578;SDS011;35483;50.828;3.228;2022-08-21T11:43:24;7.57;;;2.65;;
49578;SDS011;35483;50.828;3.228;2022-08-21T11:57:35;6.68;;;2.38;;
49578;SDS011;35483;50.828;3.228;2022-08-21T12:00:16;7.55;;;2.35;;
49578;SDS011;35483;50.828;3.228;2022-08-21T12:03:06;5.63;;;2.10;;
49578;SDS011;35483;50.828;3.228;2022-08-21T12:05:37;3.97;;;2.03;;
49578;SDS011;35483;50.828;3.228;2022-08-21T12:08:12;5.32;;;2.20;;
49578;SDS011;35483;50.828;3.228;2022-08-21T12:14:11;5.72;;;2.50;;
49578;SDS011;35483;50.828;3.228;2022-08-21T12:16:43;5.65;;;2.85;;
49578;SDS011;35483;50.828;3.228;2022-08-21T12:24:39;7.45;;;2.83;;
49578;SDS011;35483;50.828;3.228;2022-08-21T12:27:27;6.13;;;2.67;;
49578;SDS011;35483;50.828;3.228;2022-08-21T12:30:05;6.38;;;2.25;;
49578;SDS011;35483;50.828;3.228;2022-08-21T12:32:46;8.07;;;2.40;;
49578;SDS011;35483;50.828;3.228;2022-08-21T12:35:21;4.97;;;2.22;;
49578;SDS011;35483;50.828;3.228;2022-08-21T12:37:57;5.63;;;2.55;;
49578;SDS011;35483;50.828;3.228;2022-08-21T12:43:11;5.57;;;2.30;;
49578;SDS011;35483;50.828;3.228;2022-08-21T12:45:45;5.43;;;2.28;;
49578;SDS011;35483;50.828;3.228;2022-08-21T12:50:57;6.30;;;2.25;;
49578;SDS011;35483;50.828;3.228;2022-08-21T12:53:35;5.25;;;2.10;;
49578;SDS011;35483;50.828;3.228;2022-08-21T12:56:15;6.97;;;2.50;;
49578;SDS011;35483;50.828;3.228;2022-08-21T12:58:47;3.92;;;1.92;;
49578;SDS011;35483;50.828;3.228;2022-08-21T13:01:20;4.65;;;2.10;;
49578;SDS011;35483;50.828;3.228;2022-08-21T13:06:26;5.03;;;2.28;;
49578;SDS011;35483;50.828;3.228;2022-08-21T13:09:03;8.65;;;2.67;;
49578;SDS011;35483;50.828;3.228;2022-08-21T13:14:02;8.30;;;2.53;;
49578;SDS011;35483;50.828;3.228;2022-08-21T13:16:29;6.30;;;2.42;;
49578;SDS011;35483;50.828;3.228;2022-08-21T13:18:57;8.00;;;2.42;;
49578;SDS011;35483;50.828;3.228;2022-08-21T13:21:33;6.20;;;2.30;;
49578;SDS011;35483;50.828;3.228;2022-08-21T13:24:10;7.20;;;1.98;;
49578;SDS011;35483;50.828;3.228;2022-08-21T13:26:47;5.65;;;2.20;;
49578;SDS011;35483;50.828;3.228;2022-08-21T13:29:15;7.85;;;2.22;;
49578;SDS011;35483;50.828;3.228;2022-08-21T13:31:51;7.70;;;2.72;;
49578;SDS011;35483;50.828;3.228;2022-08-21T13:34:37;8.25;;;2.60;;
49578;SDS011;35483;50.828;3.228;2022-08-21T13:37:07;6.47;;;2.13;;
49578;SDS011;35483;50.828;3.228;2022-08-21T13:39:36;4.18;;;2.15;;
49578;SDS011;35483;50.828;3.228;2022-08-21T13:42:04;5.25;;;2.30;;
49578;SDS011;35483;50.828;3.228;2022-08-21T13:44:39;6.18;;;2.05;;
49578;SDS011;35483;50.828;3.228;2022-08-21T13:47:12;3.33;;;2.08;;
49578;SDS011;35483;50.828;3.228;2022-08-21T13:49:40;5.35;;;2.67;;
49578;SDS011;35483;50.828;3.228;2022-08-21T13:55:18;7.97;;;2.33;;
49578;SDS011;35483;50.828;3.228;2022-08-21T13:57:41;6.78;;;2.28;;
49578;SDS011;35483;50.828;3.228;2022-08-21T14:00:17;6.53;;;2.40;;
49578;SDS011;35483;50.828;3.228;2022-08-21T14:02:46;7.68;;;2.53;;
49578;SDS011;35483;50.828;3.228;2022-08-21T14:05:20;4.53;;;2.20;;
49578;SDS011;35483;50.828;3.228;2022-08-21T14:10:42;4.57;;;2.38;;
49578;SDS011;35483;50.828;3.228;2022-08-21T14:13:24;6.72;;;2.30;;
49578;SDS011;35483;50.828;3.228;2022-08-21T14:16:01;3.83;;;2.00;;
49578;SDS011;35483;50.828;3.228;2022-08-21T14:18:31;10.43;;;2.75;;
49578;SDS011;35483;50.828;3.228;2022-08-21T14:21:05;5.30;;;2.22;;
49578;SDS011;35483;50.828;3.228;2022-08-21T14:25:59;6.55;;;2.22;;
49578;SDS011;35483;50.828;3.228;2022-08-21T14:28:34;5.70;;;2.47;;
49578;SDS011;35483;50.828;3.228;2022-08-21T14:31:17;4.72;;;2.35;;
49578;SDS011;35483;50.828;3.228;2022-08-21T14:33:45;5.78;;;2.33;;
49578;SDS011;35483;50.828;3.228;2022-08-21T14:38:40;6.95;;;2.10;;
49578;SDS011;35483;50.828;3.228;2022-08-21T14:41:16;4.43;;;2.35;;
49578;SDS011;35483;50.828;3.228;2022-08-21T14:43:45;5.28;;;2.38;;
49578;SDS011;35483;50.828;3.228;2022-08-21T14:46:13;8.15;;;2.75;;
49578;SDS011;35483;50.828;3.228;2022-08-21T14:48:45;5.38;;;2.20;;
49578;SDS011;35483;50.828;3.228;2022-08-21T14:51:12;5.50;;;2.20;;
49578;SDS011;35483;50.828;3.228;2022-08-21T14:53:38;6.30;;;2.30;;
49578;SDS011;35483;50.828;3.228;2022-08-21T14:56:04;5.28;;;2.30;;
49578;SDS011;35483;50.828;3.228;2022-08-21T14:58:38;9.05;;;2.78;;
49578;SDS011;35483;50.828;3.228;2022-08-21T15:01:06;7.78;;;2.53;;
49578;SDS011;35483;50.828;3.228;2022-08-21T15:06:03;6.20;;;2.53;;
49578;SDS011;35483;50.828;3.228;2022-08-21T15:08:30;6.38;;;2.40;;
49578;SDS011;35483;50.828;3.228;2022-08-21T15:10:57;5.45;;;2.22;;
49578;SDS011;35483;50.828;3.228;2022-08-21T15:13:24;7.38;;;2.75;;
49578;SDS011;35483;50.828;3.228;2022-08-21T15:15:54;5.80;;;2.30;;
49578;SDS011;35483;50.828;3.228;2022-08-21T15:18:21;4.88;;;2.30;;
49578;SDS011;35483;50.828;3.228;2022-08-21T15:20:49;6.40;;;2.30;;
49578;SDS011;35483;50.828;3.228;2022-08-21T15:23:16;6.03;;;2.83;;
49578;SDS011;35483;50.828;3.228;2022-08-21T15:28:13;5.72;;;2.28;;
49578;SDS011;35483;50.828;3.228;2022-08-21T15:30:48;5.63;;;2.38;;
49578;SDS011;35483;50.828;3.228;2022-08-21T15:33:14;5.85;;;2.00;;
49578;SDS011;35483;50.828;3.228;2022-08-21T15:35:40;7.05;;;2.78;;
49578;SDS011;35483;50.828;3.228;2022-08-21T15:38:06;7.47;;;2.65;;
49578;SDS011;35483;50.828;3.228;2022-08-21T15:40:31;6.65;;;2.53;;
49578;SDS011;35483;50.828;3.228;2022-08-21T15:43:03;6.45;;;2.80;;
49578;SDS011;35483;50.828;3.228;2022-08-21T15:45:36;5.85;;;2.20;;
49578;SDS011;35483;50.828;3.228;2022-08-21T15:48:05;4.70;;;2.22;;
49578;SDS011;35483;50.828;3.228;2022-08-21T15:50:34;5.80;;;2.33;;
49578;SDS011;35483;50.828;3.228;2022-08-21T15:52:59;4.80;;;2.13;;
49578;SDS011;35483;50.828;3.228;2022-08-21T15:55:32;6.15;;;2.33;;
49578;SDS011;35483;50.828;3.228;2022-08-21T16:00:32;4.88;;;2.40;;
49578;SDS011;35483;50.828;3.228;2022-08-21T16:03:01;6.05;;;2.55;;
49578;SDS011;35483;50.828;3.228;2022-08-21T16:05:30;5.72;;;2.85;;
49578;SDS011;35483;50.828;3.228;2022-08-21T16:07:57;3.45;;;1.92;;
49578;SDS011;35483;50.828;3.228;2022-08-21T16:10:24;5.85;;;2.42;;
49578;SDS011;35483;50.828;3.228;2022-08-21T16:12:57;3.35;;;2.22;;
49578;SDS011;35483;50.828;3.228;2022-08-21T16:15:28;5.47;;;2.17;;
49578;SDS011;35483;50.828;3.228;2022-08-21T16:17:55;5.70;;;1.95;;
49578;SDS011;35483;50.828;3.228;2022-08-21T16:22:55;4.47;;;2.20;;
49578;SDS011;35483;50.828;3.228;2022-08-21T16:27:51;6.18;;;2.22;;
49578;SDS011;35483;50.828;3.228;2022-08-21T16:30:23;4.35;;;2.30;;
49578;SDS011;35483;50.828;3.228;2022-08-21T16:32:49;8.65;;;2.83;;
49578;SDS011;35483;50.828;3.228;2022-08-21T16:35:22;6.47;;;2.25;;
49578;SDS011;35483;50.828;3.228;2022-08-21T16:40:21;4.88;;;2.53;;
49578;SDS011;35483;50.828;3.228;2022-08-21T16:42:47;8.43;;;2.55;;
49578;SDS011;35483;50.828;3.228;2022-08-21T16:45:14;9.13;;;2.95;;
49578;SDS011;35483;50.828;3.228;2022-08-21T16:47:42;6.18;;;2.80;;
49578;SDS011;35483;50.828;3.228;2022-08-21T16:50:09;9.00;;;3.00;;
49578;SDS011;35483;50.828;3.228;2022-08-21T16:52:37;6.95;;;2.67;;
49578;SDS011;35483;50.828;3.228;2022-08-21T16:55:03;5.93;;;2.90;;
49578;SDS011;35483;50.828;3.228;2022-08-21T16:57:29;7.63;;;2.47;;
49578;SDS011;35483;50.828;3.228;2022-08-21T16:59:55;4.32;;;1.98;;
49578;SDS011;35483;50.828;3.228;2022-08-21T17:02:32;4.78;;;2.28;;
49578;SDS011;35483;50.828;3.228;2022-08-21T17:05:05;7.38;;;2.78;;
49578;SDS011;35483;50.828;3.228;2022-08-21T17:07:38;6.85;;;3.20;;